Time;durP1;ratioP1;P1;durP2;ratioP2;P2;SDS_P1;SDS_P2;PMS_P1;PMS_P2;Temp;Humidity;BMP_temperature;BMP_pressure;BME280_temperature;BME280_humidity;BME280_pressure;Samples;Min_cycle;Max_cycle;Signal;HPM_P1;HPM_P2
2023/05/28 00:00:45;;;;;;;;;;;;;;;13.77;100.00;102190.88;5036454;28;20021;-73
2023/05/28 00:03:12;;;;;;;34.85;9.90;;;;;;;13.78;100.00;102184.31;5033446;28;19919;-73
2023/05/28 00:05:38;;;;;;;38.10;11.02;;;;;;;13.73;100.00;102192.28;5037270;28;20021;-74
2023/05/28 00:08:03;;;;;;;37.37;11.37;;;;;;;13.75;100.00;102191.06;5039052;28;20385;-74
2023/05/28 00:10:29;;;;;;;30.47;9.37;;;;;;;13.74;100.00;102183.84;5038934;28;20104;-74
2023/05/28 00:12:54;;;;;;;35.40;10.20;;;;;;;13.70;100.00;102181.63;5032680;28;20025;-73
2023/05/28 00:15:20;;;;;;;35.50;10.67;;;;;;;13.67;100.00;102187.50;5034103;28;20464;-73
2023/05/28 00:17:46;;;;;;;36.50;10.97;;;;;;;13.65;100.00;102186.81;5035708;28;20385;-74
2023/05/28 00:20:11;;;;;;;30.63;10.47;;;;;;;13.67;100.00;102187.50;5039790;28;20033;-74
2023/05/28 00:22:37;;;;;;;35.97;9.90;;;;;;;13.66;100.00;102178.38;5039052;28;20033;-73
2023/05/28 00:25:03;;;;;;;39.33;12.30;;;;;;;13.69;100.00;102180.78;5037581;28;20431;-74
2023/05/28 00:27:29;;;;;;;30.07;9.97;;;;;;;13.63;100.00;102183.41;5038634;28;20067;-74
2023/05/28 00:29:54;;;;;;;55.90;10.50;;;;;;;13.61;100.00;102183.59;5031481;28;20021;-74
2023/05/28 00:32:20;;;;;;;36.97;10.03;;;;;;;13.56;100.00;102177.78;5044004;28;20452;-73
2023/05/28 00:34:45;;;;;;;33.60;10.70;;;;;;;13.55;100.00;102172.47;5036228;28;20041;-74
2023/05/28 00:37:12;;;;;;;35.87;9.70;;;;;;;13.55;100.00;102175.22;5038315;28;20063;-75
2023/05/28 00:39:37;;;;;;;34.78;12.00;;;;;;;13.54;100.00;102176.25;5039566;28;20447;-74
2023/05/28 00:42:04;;;;;;;34.97;11.07;;;;;;;13.54;100.00;102177.13;5037927;28;20033;-74
2023/05/28 00:44:32;;;;;;;;;;;;;;;13.51;100.00;102176.63;5040461;28;20025;-74
2023/05/28 00:46:58;;;;;;;30.17;9.40;;;;;;;13.47;100.00;102167.00;5034929;28;19913;-74
2023/05/28 00:49:23;;;;;;;34.20;10.60;;;;;;;13.46;100.00;102168.91;5038791;28;20032;-74
2023/05/28 00:51:49;;;;;;;33.90;10.93;;;;;;;13.46;100.00;102157.06;5040900;28;20024;-74
2023/05/28 00:54:15;;;;;;;38.10;11.13;;;;;;;13.41;100.00;102154.00;5035164;28;20426;-73
2023/05/28 00:56:43;;;;;;;33.10;10.95;;;;;;;13.43;100.00;102150.00;5042127;28;20037;-74
2023/05/28 00:59:09;;;;;;;36.80;11.52;;;;;;;13.41;100.00;102149.34;5039727;28;20029;-74
2023/05/28 01:01:36;;;;;;;34.75;10.15;;;;;;;13.38;100.00;102146.97;5036966;28;20100;-73
2023/05/28 01:04:02;;;;;;;36.47;10.23;;;;;;;13.35;100.00;102147.31;5036520;28;20029;-72
2023/05/28 01:06:29;;;;;;;38.55;11.00;;;;;;;13.39;100.00;102145.91;5041247;28;20031;-73
2023/05/28 01:08:55;;;;;;;33.67;11.05;;;;;;;13.35;100.00;102138.22;5043524;28;20040;-74
2023/05/28 01:11:21;;;;;;;37.20;10.68;;;;;;;13.32;100.00;102127.56;5036849;28;20124;-74
2023/05/28 01:13:50;;;;;;;31.97;10.20;;;;;;;13.27;100.00;102128.13;5038413;28;20112;-72
2023/05/28 01:16:19;;;;;;;28.75;9.90;;;;;;;13.26;100.00;102128.31;5035839;28;20170;-72
2023/05/28 01:18:44;;;;;;;41.00;10.95;;;;;;;13.27;100.00;102133.63;5034498;28;20017;-73
2023/05/28 01:21:11;;;;;;;33.97;11.30;;;;;;;13.24;100.00;102136.72;5038068;28;20523;-73
2023/05/28 01:23:47;;;;;;;46.08;12.40;;;;;;;13.18;100.00;102131.13;5035713;28;20864;-72
2023/05/28 01:26:14;;;;;;;41.08;11.23;;;;;;;13.15;100.00;102139.72;5036189;28;20068;-73
2023/05/28 01:28:44;;;;;;;32.72;11.00;;;;;;;13.14;100.00;102129.78;5037363;28;20057;-73
2023/05/28 01:31:10;;;;;;;36.90;10.98;;;;;;;13.18;100.00;102128.38;5032214;28;20120;-74
2023/05/28 01:33:36;;;;;;;36.17;10.55;;;;;;;13.13;100.00;102126.16;5035241;28;20025;-74
2023/05/28 01:36:30;;;;;;;39.72;10.80;;;;;;;13.16;100.00;102131.31;5035144;28;20029;-74
2023/05/28 01:39:00;;;;;;;34.92;10.50;;;;;;;13.12;100.00;102126.34;5033911;28;20119;-73
2023/05/28 01:41:27;;;;;;;30.05;11.45;;;;;;;13.08;100.00;102128.59;5035643;28;20037;-73
2023/05/28 01:43:54;;;;;;;35.17;10.73;;;;;;;13.03;100.00;102136.53;5038675;28;20063;-74
2023/05/28 01:46:21;;;;;;;31.33;11.73;;;;;;;13.00;100.00;102133.28;5034600;28;20029;-75
2023/05/28 01:48:47;;;;;;;;;;;;;;;13.00;100.00;102134.16;5042729;28;20037;-73
2023/05/28 01:51:16;;;;;;;31.10;10.82;;;;;;;12.99;100.00;102139.84;5040435;28;19966;-74
2023/05/28 01:53:41;;;;;;;36.97;10.95;;;;;;;12.95;100.00;102138.44;5041773;28;20029;-73
2023/05/28 01:56:07;;;;;;;40.43;11.70;;;;;;;12.93;100.00;102138.66;5041890;28;20748;-74
2023/05/28 01:58:33;;;;;;;40.77;11.63;;;;;;;12.89;100.00;102141.91;5037701;28;20121;-73
2023/05/28 02:01:13;;;;;;;32.13;10.37;;;;;;;12.90;100.00;102139.00;5039109;28;20278;-73
2023/05/28 02:03:38;;;;;;;29.98;9.63;;;;;;;12.87;100.00;102130.25;5039601;28;20551;-74
2023/05/28 02:06:04;;;;;;;34.97;10.80;;;;;;;12.82;100.00;102129.94;5041755;28;20025;-73
2023/05/28 02:08:29;;;;;;;32.27;11.70;;;;;;;12.81;100.00;102128.22;5040283;28;20132;-74
2023/05/28 02:10:55;;;;;;;38.27;11.73;;;;;;;12.78;100.00;102136.81;5035064;28;20036;-74
2023/05/28 02:13:21;;;;;;;42.07;11.70;;;;;;;12.81;100.00;102130.97;5047942;28;20060;-73
2023/05/28 02:15:47;;;;;;;40.97;11.35;;;;;;;12.76;100.00;102122.41;5043724;28;20056;-74
2023/05/28 02:18:12;;;;;;;36.60;11.43;;;;;;;12.70;100.00;102121.22;5043087;28;20398;-74
2023/05/28 02:20:38;;;;;;;25.90;11.17;;;;;;;12.70;100.00;102136.88;5037940;28;20191;-73
2023/05/28 02:23:03;;;;;;;44.10;11.37;;;;;;;12.65;100.00;102134.66;5040686;28;20033;-73
2023/05/28 02:25:28;;;;;;;32.30;11.23;;;;;;;12.68;100.00;102134.31;5043193;28;20040;-73
2023/05/28 02:27:54;;;;;;;39.80;12.50;;;;;;;12.61;100.00;102137.94;5039791;28;20392;-74
2023/05/28 02:30:20;;;;;;;33.87;11.50;;;;;;;12.62;100.00;102131.41;5038251;28;20067;-73
2023/05/28 02:32:45;;;;;;;41.00;11.70;;;;;;;12.65;100.00;102128.31;5040716;28;20037;-73
2023/05/28 02:35:12;;;;;;;36.90;11.77;;;;;;;12.63;100.00;102124.88;5034147;28;20033;-73
2023/05/28 02:37:38;;;;;;;36.67;12.05;;;;;;;12.62;100.00;102120.41;5045722;28;20025;-73
2023/05/28 02:40:04;;;;;;;35.37;11.73;;;;;;;12.60;100.00;102114.25;5040267;28;20029;-73
2023/05/28 02:42:29;;;;;;;32.57;9.63;;;;;;;12.55;100.00;102128.50;5058027;28;20071;-74
2023/05/28 02:44:54;;;;;;;37.90;11.67;;;;;;;12.54;100.00;102128.72;5042477;28;20044;-74
2023/05/28 02:47:20;;;;;;;33.40;11.70;;;;;;;12.50;100.00;102135.59;5038812;28;20393;-73
2023/05/28 02:49:46;;;;;;;39.37;10.97;;;;;;;12.50;100.00;102132.84;5039301;28;20385;-74
2023/05/28 02:52:11;;;;;;;34.63;10.40;;;;;;;12.45;100.00;102130.66;5041680;28;20055;-73
2023/05/28 02:54:37;;;;;;;33.23;10.60;;;;;;;12.46;100.00;102135.09;5040628;28;20041;-73
2023/05/28 02:57:02;;;;;;;36.93;11.77;;;;;;;12.43;100.00;102129.94;5041478;28;20025;-74
2023/05/28 02:59:28;;;;;;;37.43;10.53;;;;;;;12.49;100.00;102133.91;5041903;28;20032;-74
2023/05/28 03:01:53;;;;;;;40.27;11.47;;;;;;;12.44;100.00;102134.41;5036434;28;20040;-72
2023/05/28 03:04:19;;;;;;;38.57;11.17;;;;;;;12.42;100.00;102138.38;5041169;28;20032;-73
2023/05/28 03:06:44;;;;;;;32.23;10.93;;;;;;;12.37;100.00;102132.53;5033188;28;20025;-72
2023/05/28 03:09:10;;;;;;;49.53;12.10;;;;;;;12.35;100.00;102134.63;5042201;28;20107;-72
2023/05/28 03:11:35;;;;;;;38.77;12.80;;;;;;;12.31;100.00;102130.50;5043405;28;20036;-72
2023/05/28 03:14:00;;;;;;;41.40;11.00;;;;;;;12.29;100.00;102130.72;5042665;28;20056;-72
2023/05/28 03:16:26;;;;;;;36.00;12.17;;;;;;;12.26;100.00;102128.31;5039914;28;20144;-73
2023/05/28 03:18:51;;;;;;;35.23;10.93;;;;;;;12.21;100.00;102135.34;5039578;28;20050;-72
2023/05/28 03:21:17;;;;;;;36.80;11.47;;;;;;;12.21;100.00;102141.72;5041427;28;20033;-73
2023/05/28 03:23:42;;;;;;;38.93;10.97;;;;;;;12.20;100.00;102144.63;5041718;28;20394;-72
2023/05/28 03:26:08;;;;;;;40.20;12.23;;;;;;;12.17;100.00;102154.06;5042919;28;20421;-73
2023/05/28 03:28:34;;;;;;;36.60;11.93;;;;;;;12.11;100.00;102149.28;5044118;28;20362;-73
2023/05/28 03:30:59;;;;;;;34.80;11.95;;;;;;;12.12;100.00;102147.41;5037340;28;20351;-72
2023/05/28 03:33:25;;;;;;;32.67;11.67;;;;;;;12.12;100.00;102141.91;5040406;28;20075;-72
2023/05/28 03:35:50;;;;;;;32.97;10.50;;;;;;;12.11;100.00;102134.72;5040088;28;20029;-72
2023/05/28 03:38:18;;;;;;;30.70;11.10;;;;;;;12.15;100.00;102147.03;5034810;28;20044;-72
2023/05/28 03:40:44;;;;;;;29.92;11.18;;;;;;;12.11;100.00;102138.31;5040551;28;20070;-72
2023/05/28 03:43:09;;;;;;;37.70;11.87;;;;;;;12.10;100.00;102146.72;5041557;28;20041;-72
2023/05/28 03:45:35;;;;;;;42.53;12.50;;;;;;;12.03;100.00;102149.31;5040472;28;20021;-73
2023/05/28 03:48:02;;;;;;;26.67;11.33;;;;;;;12.08;100.00;102146.03;5045999;28;20025;-73
2023/05/28 03:50:28;;;;;;;36.28;12.00;;;;;;;12.03;100.00;102145.72;5039951;28;20515;-72
2023/05/28 03:52:53;;;;;;;48.17;12.87;;;;;;;12.04;100.00;102156.53;5038871;28;20108;-72
2023/05/28 03:55:18;;;;;;;43.37;11.83;;;;;;;12.03;100.00;102142.97;5037866;28;20498;-73
2023/05/28 03:57:44;;;;;;;31.13;12.40;;;;;;;12.01;100.00;102150.53;5036665;28;20113;-72
2023/05/28 04:00:10;;;;;;;37.53;12.23;;;;;;;12.05;100.00;102151.88;5035765;28;20029;-72
2023/05/28 04:02:36;;;;;;;36.25;12.48;;;;;;;11.99;100.00;102152.56;5033950;28;20125;-73
2023/05/28 04:05:01;;;;;;;33.13;11.03;;;;;;;11.98;100.00;102153.59;5035734;28;20116;-73
2023/05/28 04:07:27;;;;;;;53.03;13.30;;;;;;;12.01;100.00;102145.03;5038469;28;20025;-73
2023/05/28 04:09:52;;;;;;;39.20;12.23;;;;;;;12.05;100.00;102151.88;5032891;28;20116;-73
2023/05/28 04:12:18;;;;;;;33.87;13.07;;;;;;;12.07;100.00;102161.66;5042568;28;20041;-73
2023/05/28 04:14:43;;;;;;;36.07;12.97;;;;;;;12.11;100.00;102156.69;5038083;28;20385;-73
2023/05/28 04:17:12;;;;;;;40.00;12.53;;;;;;;12.07;100.00;102160.81;5034603;28;20029;-73
2023/05/28 04:19:39;;;;;;;33.33;10.98;;;;;;;12.09;100.00;102162.34;5039578;28;20017;-72
2023/05/28 04:22:05;;;;;;;31.58;11.85;;;;;;;12.10;100.00;102160.44;5041037;28;20029;-73
2023/05/28 04:24:31;;;;;;;31.87;11.77;;;;;;;12.20;100.00;102164.72;5035913;28;20040;-71
2023/05/28 04:26:57;;;;;;;34.00;11.53;;;;;;;12.19;100.00;102165.75;5037074;28;20034;-72
2023/05/28 04:29:29;;;;;;;37.70;12.13;;;;;;;12.20;100.00;102172.09;5039045;28;20083;-71
2023/05/28 04:31:57;;;;;;;45.15;12.35;;;;;;;12.21;100.00;102162.81;5034990;28;20029;-72
2023/05/28 04:34:25;;;;;;;33.75;11.70;;;;;;;12.23;100.00;102172.59;5035157;28;20044;-73
2023/05/28 04:36:56;;;;;;;39.10;11.43;;;;;;;12.24;100.00;102163.34;5034442;28;20041;-73
2023/05/28 04:39:22;;;;;;;35.50;11.18;;;;;;;12.25;100.00;102158.69;5040488;28;20021;-73
2023/05/28 04:41:49;;;;;;;31.97;9.87;;;;;;;12.35;100.00;102170.34;5038306;28;20041;-73
2023/05/28 04:44:15;;;;;;;35.22;12.18;;;;;;;12.35;100.00;102162.09;5039544;28;20710;-73
2023/05/28 04:46:43;;;;;;;36.58;11.32;;;;;;;12.43;100.00;102170.34;5039935;28;20040;-73
2023/05/28 04:49:10;;;;;;;34.15;10.88;;;;;;;12.50;100.00;102157.59;5034670;28;20503;-73
2023/05/28 04:51:37;;;;;;;28.33;11.40;;;;;;;12.53;100.00;102165.47;5039026;28;20029;-73
2023/05/28 04:54:03;;;;;;;30.02;11.30;;;;;;;12.56;100.00;102165.13;5038189;28;20029;-73
2023/05/28 04:56:28;;;;;;;35.37;11.67;;;;;;;12.56;100.00;102167.88;5043083;28;20059;-73
2023/05/28 04:58:55;;;;;;;36.67;11.00;;;;;;;12.62;100.00;102161.66;5036238;28;20377;-73
2023/05/28 05:01:22;;;;;;;29.55;10.40;;;;;;;12.59;100.00;102167.53;5039653;28;20032;-74
2023/05/28 05:03:48;;;;;;;24.08;10.85;;;;;;;12.54;100.00;102167.19;5042110;28;20115;-73
2023/05/28 05:06:13;;;;;;;36.47;10.23;;;;;;;12.60;100.00;102171.97;5039001;28;20579;-74
2023/05/28 05:08:39;;;;;;;34.50;11.27;;;;;;;12.62;100.00;102173.53;5034428;28;20029;-73
2023/05/28 05:11:06;;;;;;;27.33;10.73;;;;;;;12.63;100.00;102179.84;5036615;28;20049;-73
2023/05/28 05:13:32;;;;;;;31.70;10.43;;;;;;;12.69;100.00;102184.63;5030986;28;20052;-73
2023/05/28 05:15:57;;;;;;;27.53;10.37;;;;;;;13.14;100.00;102176.53;5037310;28;20029;-73
2023/05/28 05:18:23;;;;;;;33.83;10.13;;;;;;;14.00;100.00;102183.41;5035828;28;20436;-73
2023/05/28 05:20:48;;;;;;;45.77;10.77;;;;;;;14.81;100.00;102192.50;5037729;28;20063;-73
2023/05/28 05:23:14;;;;;;;22.53;9.27;;;;;;;15.56;96.26;102196.63;5034055;28;20489;-73
2023/05/28 05:25:40;;;;;;;29.93;9.63;;;;;;;16.22;95.56;102191.50;5033668;28;20017;-73
2023/05/28 05:28:05;;;;;;;28.20;9.60;;;;;;;16.65;92.34;102195.03;5036488;28;20063;-73
2023/05/28 05:30:30;;;;;;;22.03;8.50;;;;;;;16.72;88.59;102185.72;5037066;28;20162;-73
2023/05/28 05:32:56;;;;;;;29.90;9.30;;;;;;;17.29;87.70;102185.31;5031420;28;20065;-73
2023/05/28 05:35:21;;;;;;;22.30;8.10;;;;;;;17.77;84.02;102186.94;5034930;28;20029;-73
2023/05/28 05:37:47;;;;;;;25.20;8.37;;;;;;;18.01;85.23;102180.75;5039334;28;20037;-72
2023/05/28 05:40:12;;;;;;;17.30;7.60;;;;;;;18.20;80.66;102182.69;5034445;28;20535;-73
2023/05/28 05:42:38;;;;;;;23.83;9.03;;;;;;;18.79;79.95;102183.44;5042741;28;20071;-72
2023/05/28 05:45:05;;;;;;;22.60;7.13;;;;;;;18.82;76.09;102188.53;5041932;28;20366;-73
2023/05/28 05:47:31;;;;;;;22.35;7.50;;;;;;;19.21;75.14;102182.84;5035767;28;20032;-72
2023/05/28 05:49:57;;;;;;;22.75;8.43;;;;;;;19.66;75.08;102188.19;5037670;28;20104;-72
2023/05/28 05:52:23;;;;;;;25.80;8.38;;;;;;;19.59;73.76;102194.84;5036776;28;20034;-72
2023/05/28 05:54:48;;;;;;;20.23;7.53;;;;;;;19.74;71.82;102187.88;5039971;28;20035;-72
2023/05/28 05:57:14;;;;;;;17.87;8.00;;;;;;;19.69;72.66;102193.28;5038257;28;20044;-72
2023/05/28 05:59:40;;;;;;;23.33;7.35;;;;;;;20.12;69.71;102180.34;5033365;28;20039;-72
2023/05/28 06:02:06;;;;;;;23.75;7.97;;;;;;;20.78;69.61;102172.19;5032698;28;20033;-72
2023/05/28 06:04:33;;;;;;;;;;;;;;;20.44;68.38;102183.91;5035848;28;20024;-72
2023/05/28 06:07:05;;;;;;;23.33;7.57;;;;;;;20.36;68.31;102182.28;5037515;28;20502;-72
2023/05/28 06:09:31;;;;;;;23.85;8.05;;;;;;;20.61;67.93;102179.44;5032124;28;20477;-72
2023/05/28 06:12:01;;;;;;;26.02;8.45;;;;;;;20.79;69.38;102177.53;5028809;28;20135;-73
2023/05/28 06:14:27;;;;;;;23.15;8.23;;;;;;;21.06;65.48;102169.72;5067957;28;20037;-72
2023/05/28 06:16:53;;;;;;;26.38;7.75;;;;;;;21.05;66.71;102176.38;5036462;28;20525;-73
2023/05/28 06:19:18;;;;;;;22.05;7.30;;;;;;;21.78;63.18;102180.75;5035128;28;20079;-73
2023/05/28 06:21:44;;;;;;;19.47;7.30;;;;;;;21.67;64.59;102187.94;5040450;28;20033;-73
2023/05/28 06:24:11;;;;;;;26.30;8.70;;;;;;;21.56;62.67;102188.75;5031991;28;20032;-72
2023/05/28 06:26:36;;;;;;;;;;;;;;;21.24;62.66;102180.88;5039035;28;20033;-73
2023/05/28 06:29:01;;;;;;;16.20;7.00;;;;;;;21.25;63.01;102186.22;5037578;28;19963;-73
2023/05/28 06:31:27;;;;;;;23.30;7.32;;;;;;;21.38;64.98;102190.72;5038858;28;20021;-72
2023/05/28 06:33:53;;;;;;;27.43;8.23;;;;;;;21.25;66.21;102185.34;5033403;28;20037;-72
2023/05/28 06:36:18;;;;;;;18.90;7.53;;;;;;;21.46;64.11;102190.41;5043810;28;20025;-72
2023/05/28 06:38:44;;;;;;;22.42;7.72;;;;;;;21.32;62.57;102184.19;5040836;28;20403;-72
2023/05/28 06:41:09;;;;;;;13.93;6.80;;;;;;;21.84;63.25;102189.03;5040907;28;20433;-73
2023/05/28 06:43:37;;;;;;;19.50;7.60;;;;;;;21.96;63.06;102184.31;5040358;28;20029;-72
2023/05/28 06:46:03;;;;;;;21.80;6.88;;;;;;;21.69;62.91;102177.44;5038309;28;20469;-73
2023/05/28 06:48:28;;;;;;;18.73;7.97;;;;;;;22.57;62.27;102178.31;5043664;28;20036;-73
2023/05/28 06:50:54;;;;;;;16.33;7.00;;;;;;;22.53;60.44;102185.47;5041760;28;20067;-72
2023/05/28 06:53:20;;;;;;;19.92;7.28;;;;;;;22.58;59.06;102182.81;5039331;28;20037;-73
2023/05/28 06:55:45;;;;;;;18.35;6.75;;;;;;;22.59;60.14;102195.69;5043203;28;20017;-72
2023/05/28 06:58:11;;;;;;;20.50;7.60;;;;;;;22.64;59.45;102191.09;5040357;28;20022;-73
2023/05/28 07:00:36;;;;;;;20.67;7.27;;;;;;;22.44;60.22;102186.94;5040883;28;20030;-72
2023/05/28 07:03:01;;;;;;;19.90;7.27;;;;;;;22.32;60.55;102197.22;5037903;28;20021;-72
2023/05/28 07:05:27;;;;;;;16.03;6.83;;;;;;;21.69;62.20;102196.97;5037780;28;20056;-71
2023/05/28 07:07:52;;;;;;;24.57;8.33;;;;;;;22.22;62.73;102203.41;5040337;28;20112;-71
2023/05/28 07:10:18;;;;;;;21.57;8.20;;;;;;;21.90;61.70;102207.59;5039813;28;20101;-71
2023/05/28 07:12:43;;;;;;;21.27;7.10;;;;;;;22.44;62.04;102195.31;5042356;28;20032;-72
2023/05/28 07:15:10;;;;;;;17.00;7.60;;;;;;;22.06;60.91;102195.75;5037010;28;20024;-71
2023/05/28 07:17:35;;;;;;;22.75;8.20;;;;;;;22.05;62.18;102199.63;5043968;28;20389;-72
2023/05/28 07:20:00;;;;;;;18.63;7.63;;;;;;;21.60;62.15;102191.94;5040378;28;20022;-71
2023/05/28 07:22:26;;;;;;;23.73;7.57;;;;;;;21.77;60.59;102193.00;5046981;28;20037;-72
2023/05/28 07:24:51;;;;;;;17.23;7.40;;;;;;;22.35;61.07;102207.94;5030351;28;20113;-71
2023/05/28 07:27:17;;;;;;;22.57;7.77;;;;;;;21.86;61.31;102206.38;5041310;28;20386;-71
2023/05/28 07:29:42;;;;;;;28.33;9.40;;;;;;;22.46;60.96;102207.94;5032611;28;20110;-70
2023/05/28 07:32:07;;;;;;;23.27;9.13;;;;;;;22.22;60.51;102209.00;5038296;28;20411;-71
2023/05/28 07:34:33;;;;;;;18.87;7.67;;;;;;;22.40;61.70;102220.06;5035000;28;20111;-72
2023/05/28 07:36:58;;;;;;;19.70;8.33;;;;;;;21.86;61.03;102205.50;5037303;28;20032;-72
2023/05/28 07:39:24;;;;;;;19.77;7.80;;;;;;;21.92;61.99;102210.16;5040997;28;20100;-72
2023/05/28 07:41:49;;;;;;;25.07;8.63;;;;;;;22.25;61.27;102211.28;5041230;28;20496;-73
2023/05/28 07:44:17;;;;;;;20.47;7.77;;;;;;;22.25;59.06;102216.03;5039866;28;20083;-71
2023/05/28 07:46:43;;;;;;;18.65;7.72;;;;;;;21.84;60.56;102210.47;5040017;28;20034;-74
2023/05/28 07:49:08;;;;;;;21.90;8.10;;;;;;;21.73;62.12;102208.50;5035837;28;20024;-76
2023/05/28 07:51:34;;;;;;;23.67;8.67;;;;;;;21.53;62.02;102203.19;5037723;28;20654;-72
2023/05/28 07:53:59;;;;;;;17.67;7.27;;;;;;;21.68;63.27;102203.66;5035048;28;20438;-74
2023/05/28 07:56:26;;;;;;;19.07;7.87;;;;;;;21.93;62.29;102209.88;5041680;28;20033;-75
2023/05/28 07:58:51;;;;;;;;;;;;;;;21.44;60.37;102214.91;5035637;28;20032;-75
2023/05/28 08:01:17;;;;;;;25.88;7.47;;;;;;;21.50;62.31;102200.03;5038372;28;19917;-75
2023/05/28 08:03:42;;;;;;;21.67;7.23;;;;;;;21.89;62.41;102207.81;5039002;28;20024;-76
2023/05/28 08:06:08;;;;;;;18.67;7.03;;;;;;;21.45;61.04;102205.44;5032132;28;20032;-75
2023/05/28 08:08:34;;;;;;;19.10;7.70;;;;;;;21.63;62.15;102205.41;5035240;28;20048;-75
2023/05/28 08:11:00;;;;;;;25.00;8.13;;;;;;;21.92;62.03;102212.94;5030967;28;20033;-76
2023/05/28 08:13:25;;;;;;;20.17;7.10;;;;;;;21.53;61.59;102213.47;5036077;28;20428;-74
2023/05/28 08:15:51;;;;;;;23.13;7.80;;;;;;;21.34;62.64;102222.97;5031693;28;20025;-74
2023/05/28 08:18:17;;;;;;;18.63;7.60;;;;;;;21.10;62.49;102212.75;5042499;28;20048;-76
2023/05/28 08:20:43;;;;;;;27.17;7.90;;;;;;;20.64;64.24;102213.25;5031390;28;20018;-75
2023/05/28 08:23:08;;;;;;;21.53;7.63;;;;;;;20.56;65.36;102212.69;5034856;28;20025;-76
2023/05/28 08:25:34;;;;;;;22.67;7.43;;;;;;;20.83;65.61;102217.78;5031390;28;20035;-75
2023/05/28 08:28:00;;;;;;;21.67;7.00;;;;;;;21.33;63.12;102208.19;5031301;28;20404;-76
2023/05/28 08:30:26;;;;;;;21.27;7.30;;;;;;;21.24;63.11;102211.53;5035738;28;20452;-74
2023/05/28 08:32:52;;;;;;;20.58;7.25;;;;;;;21.20;63.58;102216.72;5034828;28;20071;-75
2023/05/28 08:35:17;;;;;;;23.00;7.87;;;;;;;21.02;63.19;102213.09;5033748;28;20117;-75
2023/05/28 08:37:43;;;;;;;25.73;7.43;;;;;;;21.08;62.00;102214.94;5031342;28;20500;-76
2023/05/28 08:40:09;;;;;;;18.27;7.67;;;;;;;21.42;62.22;102203.97;5029911;28;20104;-75
2023/05/28 08:42:36;;;;;;;28.48;7.75;;;;;;;21.02;62.76;102204.72;5032056;28;20065;-75
2023/05/28 08:45:03;;;;;;;19.70;7.97;;;;;;;21.04;61.61;102191.41;5035355;28;20051;-74
2023/05/28 08:47:32;;;;;;;21.00;7.20;;;;;;;20.98;61.88;102201.53;5035141;28;20119;-75
2023/05/28 08:50:01;;;;;;;23.55;7.63;;;;;;;21.37;61.60;102202.97;5038039;28;20033;-75
2023/05/28 08:52:31;;;;;;;18.63;7.95;;;;;;;21.65;61.81;102203.22;5036209;28;20087;-73
2023/05/28 08:54:58;;;;;;;23.90;7.38;;;;;;;21.67;60.24;102201.06;5044934;28;20079;-74
2023/05/28 08:57:25;;;;;;;22.45;7.90;;;;;;;21.68;60.69;102203.66;5039719;28;20029;-74
2023/05/28 08:59:53;;;;;;;19.52;7.03;;;;;;;22.08;60.59;102204.72;5039509;28;20388;-76
2023/05/28 09:02:23;;;;;;;28.83;8.32;;;;;;;22.06;59.42;102194.88;5046218;28;20025;-76
2023/05/28 09:04:49;;;;;;;24.38;7.15;;;;;;;22.04;58.91;102194.28;5039029;28;20485;-75
2023/05/28 09:07:15;;;;;;;18.67;7.20;;;;;;;21.97;59.68;102196.31;5042603;28;20021;-74
2023/05/28 09:09:40;;;;;;;19.37;6.70;;;;;;;22.31;58.33;102198.31;5042408;28;20437;-75
2023/05/28 09:12:10;;;;;;;19.23;6.17;;;;;;;22.20;58.05;102190.78;5035329;28;20089;-73
2023/05/28 09:14:41;;;;;;;18.27;6.60;;;;;;;22.21;55.61;102193.34;5040243;28;20048;-75
2023/05/28 09:17:13;;;;;;;16.83;6.50;;;;;;;22.24;56.66;102186.44;5039576;28;20025;-74
2023/05/28 09:19:39;;;;;;;20.85;6.38;;;;;;;22.05;55.90;102185.66;5045635;28;20130;-74
2023/05/28 09:22:05;;;;;;;18.63;5.35;;;;;;;22.30;55.98;102191.03;5034910;28;20033;-74
2023/05/28 09:24:30;;;;;;;21.63;6.53;;;;;;;22.12;56.51;102193.91;5046999;28;20036;-74
2023/05/28 09:26:57;;;;;;;17.38;6.10;;;;;;;21.85;55.66;102187.06;5041072;28;20107;-73
2023/05/28 09:29:24;;;;;;;15.95;6.15;;;;;;;22.40;53.84;102192.13;5036656;28;20029;-73
2023/05/28 09:32:00;;;;;;;18.05;5.18;;;;;;;22.34;54.68;102186.66;5035781;28;20079;-76
2023/05/28 09:34:27;;;;;;;24.73;6.80;;;;;;;22.45;55.16;102200.66;5037403;28;20041;-75
2023/05/28 09:36:53;;;;;;;18.15;6.32;;;;;;;22.26;55.57;102195.41;5040872;28;20367;-76
2023/05/28 09:39:23;;;;;;;17.87;6.07;;;;;;;22.23;53.94;102188.34;5035839;28;20029;-74
2023/05/28 09:41:59;;;;;;;20.85;6.20;;;;;;;22.51;54.96;102191.31;5039304;28;20373;-74
2023/05/28 09:44:30;;;;;;;19.77;6.32;;;;;;;22.84;53.66;102196.28;5039347;28;20041;-75
2023/05/28 09:46:56;;;;;;;18.50;5.70;;;;;;;23.04;52.99;102200.38;5038197;28;20036;-76
2023/05/28 09:49:21;;;;;;;14.37;5.20;;;;;;;23.18;52.58;102195.38;5034777;28;20022;-75
2023/05/28 09:51:51;;;;;;;18.53;6.03;;;;;;;23.60;51.58;102180.88;5035464;28;20033;-75
2023/05/28 09:54:19;;;;;;;16.63;5.28;;;;;;;23.97;50.06;102189.72;5035922;28;20033;-75
2023/05/28 09:56:47;;;;;;;12.65;6.03;;;;;;;23.56;51.01;102184.41;5038856;28;20108;-75
2023/05/28 09:59:15;;;;;;;23.23;6.38;;;;;;;23.35;51.37;102191.56;5043153;28;20362;-75
2023/05/28 10:02:05;;;;;;;19.27;5.85;;;;;;;23.44;52.66;102194.81;5032887;28;20024;-74
2023/05/28 10:04:36;;;;;;;18.55;6.47;;;;;;;22.81;51.43;102188.38;5037121;28;20029;-75
2023/05/28 10:07:05;;;;;;;19.50;6.40;;;;;;;23.15;49.77;102173.50;5035986;28;20025;-73
2023/05/28 10:09:33;;;;;;;17.63;5.78;;;;;;;23.19;52.02;102191.47;5037028;28;20481;-72
2023/05/28 10:12:22;;;;;;;12.52;5.80;;;;;;;23.26;50.72;102187.44;5035249;28;20362;-72
2023/05/28 10:14:49;;;;;;;19.23;6.03;;;;;;;23.45;51.22;102190.91;5036307;28;20427;-72
2023/05/28 10:17:16;;;;;;;18.20;5.75;;;;;;;23.51;50.56;102192.69;5044257;28;20024;-72
2023/05/28 10:19:45;;;;;;;19.65;6.47;;;;;;;23.12;51.74;102197.19;5045665;28;20496;-73
2023/05/28 10:22:11;;;;;;;18.83;6.07;;;;;;;22.68;52.31;102191.44;5045013;28;20496;-72
2023/05/28 10:24:37;;;;;;;;;;;;;;;22.82;53.79;102201.25;5046030;28;20186;-72
2023/05/28 10:27:06;;;;;;;18.85;5.82;;;;;;;22.24;53.47;102194.81;5038261;28;20026;-71
2023/05/28 10:29:42;;;;;;;17.70;5.75;;;;;;;22.42;53.51;102181.56;5041596;28;20603;-72
2023/05/28 10:32:08;;;;;;;17.85;6.03;;;;;;;22.24;54.26;102186.44;5034936;28;20311;-72
2023/05/28 10:34:36;;;;;;;21.55;6.43;;;;;;;21.91;54.52;102191.69;5035380;28;20025;-72
2023/05/28 10:37:03;;;;;;;27.60;6.75;;;;;;;21.66;55.14;102199.34;5039282;28;20060;-72
2023/05/28 10:39:47;;;;;;;23.65;6.75;;;;;;;21.75;55.64;102189.56;5039657;28;20033;-71
2023/05/28 10:42:18;;;;;;;19.45;5.90;;;;;;;22.40;55.21;102189.34;5043264;28;20496;-72
2023/05/28 10:45:02;;;;;;;18.73;6.10;;;;;;;22.32;54.17;102188.84;5044306;28;20539;-72
2023/05/28 10:47:54;;;;;;;19.38;6.40;;;;;;;22.33;54.35;102193.34;5036566;28;20949;-72
2023/05/28 10:50:20;;;;;;;18.27;5.88;;;;;;;22.68;53.52;102191.44;5041763;28;20500;-71
2023/05/28 10:53:05;;;;;;;16.13;6.00;;;;;;;22.76;53.83;102188.25;5048346;28;20017;-72
2023/05/28 10:55:47;;;;;;;20.52;6.30;;;;;;;22.86;52.41;102197.72;5043115;28;20385;-72
2023/05/28 10:58:13;;;;;;;20.98;6.30;;;;;;;23.08;53.48;102183.94;5045540;28;20029;-72
2023/05/28 11:00:42;;;;;;;;;;;;;;;22.79;52.28;102194.19;5043790;28;20044;-71
2023/05/28 11:03:07;;;;;;;20.50;6.00;;;;;;;22.69;52.93;102185.59;5042009;28;19913;-71
2023/05/28 11:05:35;;;;;;;17.53;5.60;;;;;;;22.97;53.98;102188.47;5038900;28;20035;-71
2023/05/28 11:08:01;;;;;;;17.23;6.30;;;;;;;22.94;52.80;102182.53;5044041;28;20024;-71
2023/05/28 11:10:28;;;;;;;16.38;6.53;;;;;;;23.08;52.27;102190.41;5046947;28;20423;-72